createdAt,value
2023-05-13T00:00:40.283Z,25.00
2023-05-13T00:01:40.299Z,0.00
2023-05-13T00:02:40.379Z,0.00
2023-05-13T00:03:40.518Z,0.00
2023-05-13T00:04:40.394Z,0.00
2023-05-13T00:05:40.515Z,0.00
2023-05-13T00:06:40.775Z,0.00
2023-05-13T00:07:40.495Z,13.47
2023-05-13T00:08:40.539Z,25.98
2023-05-13T00:09:40.602Z,25.55
2023-05-13T00:10:40.642Z,25.00
2023-05-13T00:11:40.707Z,26.62
2023-05-13T00:12:40.738Z,25.00
2023-05-13T00:13:40.781Z,25.00
2023-05-13T00:14:40.848Z,25.27
2023-05-13T00:15:40.915Z,25.45
2023-05-13T00:16:41.093Z,27.18
2023-05-13T00:17:41.023Z,25.33
2023-05-13T00:18:41.056Z,25.93
2023-05-13T00:19:41.083Z,25.00
2023-05-13T00:20:41.128Z,26.85
2023-05-13T00:21:41.194Z,28.36
2023-05-13T00:22:41.282Z,27.87
2023-05-13T00:23:41.289Z,26.40
2023-05-13T00:24:41.339Z,29.36
2023-05-13T00:25:41.397Z,25.00
2023-05-13T00:26:41.435Z,26.01
2023-05-13T00:27:41.537Z,26.67
2023-05-13T00:28:41.552Z,28.96
2023-05-13T00:29:41.608Z,26.23
2023-05-13T00:30:41.649Z,25.45
2023-05-13T00:31:41.842Z,26.57
2023-05-13T00:32:41.781Z,28.06
2023-05-13T00:33:41.813Z,30.38
2023-05-13T00:34:41.829Z,31.47
2023-05-13T00:35:41.870Z,27.29
2023-05-13T00:36:41.938Z,26.13
2023-05-13T00:37:41.974Z,26.03
2023-05-13T00:38:42.028Z,27.78
2023-05-13T00:39:42.082Z,30.00
2023-05-13T00:40:42.132Z,27.24
2023-05-13T00:41:42.150Z,25.81
2023-05-13T00:42:42.219Z,26.68
2023-05-13T00:43:42.290Z,28.86
2023-05-13T00:44:42.302Z,25.00
2023-05-13T00:45:42.349Z,25.38
2023-05-13T00:46:42.377Z,25.00
2023-05-13T00:47:42.458Z,26.35
2023-05-13T00:48:42.481Z,27.77
2023-05-13T00:49:42.524Z,28.08
2023-05-13T00:50:42.566Z,27.65
2023-05-13T00:51:42.612Z,25.00
2023-05-13T00:52:42.664Z,29.91
2023-05-13T00:53:42.731Z,25.68
2023-05-13T00:54:42.777Z,28.01
2023-05-13T00:55:42.838Z,29.61
2023-05-13T00:56:42.879Z,29.04
2023-05-13T00:57:42.930Z,27.94
2023-05-13T00:58:42.973Z,26.85
2023-05-13T00:59:43.021Z,28.09
2023-05-13T01:00:43.040Z,27.40
2023-05-13T01:01:43.083Z,26.34
2023-05-13T01:02:43.245Z,27.82
2023-05-13T01:03:43.181Z,27.94
2023-05-13T01:04:43.229Z,27.40
2023-05-13T01:05:43.289Z,26.93
2023-05-13T01:06:43.335Z,27.68
2023-05-13T01:07:43.389Z,28.73
2023-05-13T01:08:43.443Z,27.24
2023-05-13T01:09:43.506Z,29.20
2023-05-13T01:10:43.546Z,30.85
2023-05-13T01:11:43.576Z,30.92
2023-05-13T01:12:43.625Z,28.04
2023-05-13T01:13:43.675Z,29.33
2023-05-13T01:14:43.729Z,30.12
2023-05-13T01:15:43.886Z,27.53
2023-05-13T01:16:43.923Z,30.12
2023-05-13T01:17:43.952Z,29.31
2023-05-13T01:18:43.988Z,29.51
2023-05-13T01:19:44.050Z,29.09
2023-05-13T01:20:44.054Z,29.62
2023-05-13T01:21:44.110Z,27.34
2023-05-13T01:22:44.175Z,32.44
2023-05-13T01:23:44.192Z,29.79
2023-05-13T01:24:44.290Z,29.73
2023-05-13T01:25:44.305Z,29.30
2023-05-13T01:26:44.369Z,29.02
2023-05-13T01:27:44.425Z,27.43
2023-05-13T01:28:44.474Z,27.79
2023-05-13T01:29:44.504Z,29.75
2023-05-13T01:30:44.542Z,30.77
2023-05-13T01:31:44.731Z,31.86
2023-05-13T01:32:44.673Z,27.91
2023-05-13T01:33:44.658Z,29.70
2023-05-13T01:34:44.719Z,29.38
2023-05-13T01:35:44.747Z,26.40
2023-05-13T01:36:44.792Z,28.92
2023-05-13T01:37:44.830Z,29.56
2023-05-13T01:38:44.866Z,29.34
2023-05-13T01:39:44.909Z,31.13
2023-05-13T01:40:44.947Z,29.12
2023-05-13T01:41:45.006Z,30.67
2023-05-13T01:42:45.025Z,30.19
2023-05-13T01:43:45.046Z,27.58
2023-05-13T01:44:45.081Z,29.63
2023-05-13T01:45:45.122Z,28.19
2023-05-13T01:46:45.212Z,29.84
2023-05-13T01:47:45.332Z,27.21
2023-05-13T01:48:45.294Z,30.96
2023-05-13T01:49:45.362Z,28.74
2023-05-13T01:50:45.427Z,30.16
2023-05-13T01:51:45.475Z,31.96
2023-05-13T01:52:45.541Z,33.28
2023-05-13T01:53:45.600Z,27.85
2023-05-13T01:54:45.672Z,31.17
2023-05-13T01:55:45.728Z,30.84
2023-05-13T01:56:45.785Z,29.79
2023-05-13T01:57:45.853Z,31.62
2023-05-13T01:58:45.903Z,28.93
2023-05-13T01:59:45.954Z,30.29
2023-05-13T02:00:46.000Z,30.09
2023-05-13T02:01:46.120Z,28.00
2023-05-13T02:02:46.128Z,30.93
2023-05-13T02:03:46.204Z,31.37
2023-05-13T02:04:46.150Z,32.67
2023-05-13T02:05:46.197Z,32.37
2023-05-13T02:06:46.222Z,30.93
2023-05-13T02:07:46.276Z,31.26
2023-05-13T02:08:46.333Z,33.71
2023-05-13T02:09:46.401Z,30.12
2023-05-13T02:10:46.446Z,32.22
2023-05-13T02:11:46.535Z,31.87
2023-05-13T02:12:46.572Z,33.39
2023-05-13T02:13:46.627Z,29.61
2023-05-13T02:14:46.698Z,31.15
2023-05-13T02:15:46.744Z,30.34
2023-05-13T02:16:46.864Z,30.27
2023-05-13T02:17:46.871Z,28.13
2023-05-13T02:18:46.938Z,33.46
2023-05-13T02:19:47.001Z,32.80
2023-05-13T02:20:47.032Z,29.97
2023-05-13T02:21:47.076Z,34.68
2023-05-13T02:22:47.127Z,30.18
2023-05-13T02:23:47.179Z,31.54
2023-05-13T02:24:47.240Z,31.43
2023-05-13T02:25:47.313Z,32.11
2023-05-13T02:26:47.338Z,31.46
2023-05-13T02:27:47.456Z,32.75
2023-05-13T02:28:47.469Z,30.42
2023-05-13T02:29:47.537Z,32.87
2023-05-13T02:30:47.578Z,34.13
2023-05-13T02:31:47.699Z,33.19
2023-05-13T02:32:47.758Z,37.00
2023-05-13T02:33:47.767Z,31.11
2023-05-13T02:34:47.810Z,33.60
2023-05-13T02:35:47.869Z,33.13
2023-05-13T02:36:47.906Z,32.24
2023-05-13T02:37:47.961Z,32.78
2023-05-13T02:38:48.030Z,34.76
2023-05-13T02:39:48.099Z,33.74
2023-05-13T02:40:48.153Z,32.20
2023-05-13T02:41:48.198Z,30.76
2023-05-13T02:42:48.263Z,32.28
2023-05-13T02:43:48.331Z,32.41
2023-05-13T02:44:48.403Z,34.50
2023-05-13T02:45:48.468Z,34.20
2023-05-13T02:46:48.505Z,34.59
2023-05-13T02:47:48.636Z,35.03
2023-05-13T02:48:48.636Z,34.39
2023-05-13T02:49:48.803Z,32.75
2023-05-13T02:50:48.727Z,35.80
2023-05-13T02:51:48.773Z,33.08
2023-05-13T02:52:48.814Z,38.49
2023-05-13T02:53:48.876Z,32.72
2023-05-13T02:54:49.116Z,35.27
2023-05-13T02:55:48.939Z,33.61
2023-05-13T02:56:48.986Z,34.68
2023-05-13T02:57:49.024Z,33.16
2023-05-13T02:58:49.062Z,38.54
2023-05-13T02:59:49.129Z,33.61
2023-05-13T03:00:49.186Z,35.35
2023-05-13T03:01:49.345Z,34.07
2023-05-13T03:02:49.359Z,37.01
2023-05-13T03:03:49.478Z,37.02
2023-05-13T03:04:49.430Z,36.57
2023-05-13T03:05:49.498Z,37.26
2023-05-13T03:06:49.544Z,33.11
2023-05-13T03:07:49.653Z,35.77
2023-05-13T03:08:49.685Z,38.57
2023-05-13T03:09:49.731Z,34.82
2023-05-13T03:10:49.768Z,37.27
2023-05-13T03:11:49.805Z,36.30
2023-05-13T03:12:49.851Z,36.78
2023-05-13T03:13:49.925Z,39.02
2023-05-13T03:14:49.958Z,36.60
2023-05-13T03:15:50.065Z,36.44
2023-05-13T03:16:50.068Z,38.01
2023-05-13T03:17:50.189Z,38.21
2023-05-13T03:18:50.277Z,37.48
2023-05-13T03:19:50.250Z,41.25
2023-05-13T03:20:50.313Z,37.48
2023-05-13T03:21:50.383Z,36.91
2023-05-13T03:22:50.433Z,36.10
2023-05-13T03:23:50.520Z,36.81
2023-05-13T03:24:50.547Z,38.65
2023-05-13T03:25:50.597Z,41.37
2023-05-13T03:26:50.650Z,36.20
2023-05-13T03:27:50.678Z,39.44
2023-05-13T03:28:50.731Z,38.99
2023-05-13T03:29:50.780Z,38.24
2023-05-13T03:30:50.875Z,38.22
2023-05-13T03:31:50.963Z,40.99
2023-05-13T03:32:51.042Z,40.54
2023-05-13T03:33:51.026Z,41.26
2023-05-13T03:34:51.078Z,39.31
2023-05-13T03:35:51.154Z,37.71
2023-05-13T03:36:51.194Z,37.55
2023-05-13T03:37:51.254Z,41.19
2023-05-13T03:38:51.312Z,42.48
2023-05-13T03:39:51.382Z,39.39
2023-05-13T03:40:51.383Z,42.35
2023-05-13T03:41:51.426Z,38.46
2023-05-13T03:42:51.457Z,40.37
2023-05-13T03:43:51.494Z,38.90
2023-05-13T03:44:51.557Z,38.70
2023-05-13T03:45:51.615Z,37.75
2023-05-13T03:46:51.711Z,42.26
2023-05-13T03:47:51.753Z,39.32
2023-05-13T03:48:51.781Z,42.39
2023-05-13T03:49:51.842Z,40.75
2023-05-13T03:50:51.872Z,41.09
2023-05-13T03:51:51.905Z,39.60
2023-05-13T03:52:51.940Z,41.27
2023-05-13T03:53:51.984Z,41.32
2023-05-13T03:54:52.021Z,41.65
2023-05-13T03:55:52.109Z,40.74
2023-05-13T03:56:52.141Z,41.55
2023-05-13T03:57:52.196Z,43.30
2023-05-13T03:58:52.260Z,41.64
2023-05-13T03:59:52.329Z,41.49
2023-05-13T04:00:52.393Z,41.91
2023-05-13T04:01:52.490Z,44.04
2023-05-13T04:02:52.734Z,43.33
2023-05-13T04:03:52.580Z,39.40
2023-05-13T04:04:52.765Z,41.92
2023-05-13T04:05:52.723Z,42.66
2023-05-13T04:06:52.764Z,39.97
2023-05-13T04:07:52.829Z,41.33
2023-05-13T04:08:52.896Z,40.51
2023-05-13T04:09:52.956Z,42.21
2023-05-13T04:10:53.008Z,45.04
2023-05-13T04:11:53.114Z,42.00
2023-05-13T04:12:53.186Z,45.22
2023-05-13T04:13:53.195Z,46.69
2023-05-13T04:14:53.256Z,45.85
2023-05-13T04:15:53.314Z,39.85
2023-05-13T04:16:53.407Z,43.88
2023-05-13T04:17:53.416Z,44.12
2023-05-13T04:18:53.484Z,45.37
2023-05-13T04:19:53.529Z,42.46
2023-05-13T04:20:53.562Z,44.51
2023-05-13T04:21:53.692Z,43.82
2023-05-13T04:22:53.684Z,45.96
2023-05-13T04:23:53.744Z,43.93
2023-05-13T04:24:53.820Z,45.97
2023-05-13T04:25:53.890Z,44.59
2023-05-13T04:26:53.923Z,46.80
2023-05-13T04:27:53.990Z,44.43
2023-05-13T04:28:54.019Z,45.59
2023-05-13T04:29:54.074Z,45.80
2023-05-13T04:30:54.136Z,43.77
2023-05-13T04:31:54.211Z,46.85
2023-05-13T04:32:54.304Z,46.46
2023-05-13T04:33:54.309Z,44.94
2023-05-13T04:34:54.354Z,42.66
2023-05-13T04:35:54.403Z,46.51
2023-05-13T04:36:54.460Z,46.75
2023-05-13T04:37:54.531Z,49.10
2023-05-13T04:38:54.579Z,45.71
2023-05-13T04:39:54.624Z,45.96
2023-05-13T04:40:54.685Z,43.77
2023-05-13T04:41:54.739Z,44.52
2023-05-13T04:42:55.206Z,43.25
2023-05-13T04:43:54.937Z,47.14
2023-05-13T04:44:54.886Z,46.49
2023-05-13T04:45:54.944Z,46.08
2023-05-13T04:46:54.978Z,45.32
2023-05-13T04:47:56.922Z,46.14
2023-05-13T04:48:55.040Z,46.29
2023-05-13T04:49:55.031Z,46.20
2023-05-13T04:50:55.027Z,46.49
2023-05-13T04:51:55.018Z,45.80
2023-05-13T04:52:55.055Z,46.57
2023-05-13T04:53:55.000Z,50.54
2023-05-13T04:54:54.991Z,45.85
2023-05-13T04:55:54.990Z,44.32
2023-05-13T04:56:54.985Z,47.04
2023-05-13T04:57:54.982Z,47.12
2023-05-13T04:58:54.968Z,49.12
2023-05-13T04:59:54.978Z,46.22
2023-05-13T05:00:54.950Z,46.51
2023-05-13T05:01:55.028Z,47.82
2023-05-13T05:02:54.950Z,46.65
2023-05-13T05:03:54.984Z,47.65
2023-05-13T05:04:54.928Z,45.51
2023-05-13T05:05:54.920Z,46.33
2023-05-13T05:06:54.912Z,48.20
2023-05-13T05:07:54.913Z,47.87
2023-05-13T05:08:55.892Z,49.15
2023-05-13T05:09:55.040Z,46.38
2023-05-13T05:10:55.082Z,44.27
2023-05-13T05:11:55.118Z,48.85
2023-05-13T05:12:55.172Z,48.34
2023-05-13T05:13:55.262Z,45.49
2023-05-13T05:14:55.304Z,45.42
2023-05-13T05:15:55.434Z,46.10
2023-05-13T05:16:55.431Z,48.24
2023-05-13T05:17:55.543Z,46.78
2023-05-13T05:18:55.697Z,47.34
2023-05-13T05:19:55.578Z,46.64
2023-05-13T05:20:55.637Z,47.49
2023-05-13T05:21:55.702Z,45.35
2023-05-13T05:22:55.760Z,46.76
2023-05-13T05:23:55.850Z,49.46
2023-05-13T05:24:55.883Z,47.25
2023-05-13T05:26:04.462Z,49.28
2023-05-13T05:26:55.944Z,49.72
2023-05-13T05:27:55.921Z,50.36
2023-05-13T05:28:55.926Z,50.85
2023-05-13T05:29:55.910Z,48.65
2023-05-13T05:30:55.907Z,49.27
2023-05-13T05:31:55.978Z,49.15
2023-05-13T05:32:55.921Z,48.32
2023-05-13T05:33:55.888Z,51.38
2023-05-13T05:34:55.881Z,51.41
2023-05-13T05:35:55.872Z,51.48
2023-05-13T05:36:55.876Z,48.13
2023-05-13T05:37:55.852Z,47.58
2023-05-13T05:38:55.854Z,50.68
2023-05-13T05:39:55.844Z,50.45
2023-05-13T05:40:55.837Z,47.06
2023-05-13T05:41:55.835Z,49.57
2023-05-13T05:42:55.822Z,48.83
2023-05-13T05:43:55.820Z,48.73
2023-05-13T05:44:55.823Z,47.85
2023-05-13T05:45:55.881Z,50.25
2023-05-13T05:46:55.815Z,49.51
2023-05-13T05:47:55.882Z,47.49
2023-05-13T05:48:55.914Z,47.18
2023-05-13T05:49:55.790Z,49.79
2023-05-13T05:50:55.767Z,49.93
2023-05-13T05:51:55.841Z,50.76
2023-05-13T05:52:55.864Z,47.77
2023-05-13T05:53:55.926Z,48.68
2023-05-13T05:54:55.990Z,48.21
2023-05-13T05:55:56.051Z,46.49
2023-05-13T05:56:56.111Z,47.26
2023-05-13T05:57:56.137Z,46.74
2023-05-13T05:58:56.195Z,48.97
2023-05-13T05:59:56.259Z,50.48
2023-05-13T06:00:56.322Z,51.30
2023-05-13T06:01:56.404Z,52.63
2023-05-13T06:02:56.511Z,53.41
2023-05-13T06:03:56.570Z,51.47
2023-05-13T06:04:56.536Z,49.83
2023-05-13T06:05:56.601Z,53.33
2023-05-13T06:06:56.713Z,57.03
2023-05-13T06:07:56.687Z,58.01
2023-05-13T06:08:56.739Z,53.38
2023-05-13T06:09:56.784Z,60.12
2023-05-13T06:10:56.839Z,63.35
2023-05-13T06:11:56.884Z,68.75
2023-05-13T06:12:56.907Z,66.84
2023-05-13T06:13:56.951Z,69.78
2023-05-13T06:14:56.967Z,68.20
2023-05-13T06:15:57.957Z,67.62
2023-05-13T06:16:57.023Z,69.47
2023-05-13T06:17:57.118Z,69.05
2023-05-13T06:18:57.099Z,74.19
2023-05-13T06:19:57.135Z,77.42
2023-05-13T06:20:57.140Z,78.55
2023-05-13T06:21:57.174Z,78.64
2023-05-13T06:22:57.204Z,79.06
2023-05-13T06:23:57.238Z,79.89
2023-05-13T06:24:57.259Z,85.13
2023-05-13T06:25:57.295Z,84.24
2023-05-13T06:26:57.313Z,83.60
2023-05-13T06:27:57.332Z,90.31
2023-05-13T06:28:57.360Z,90.94
2023-05-13T06:29:57.382Z,92.00
2023-05-13T06:30:57.479Z,92.74
2023-05-13T06:31:57.403Z,94.18
2023-05-13T06:33:01.479Z,94.26
2023-05-13T06:33:57.416Z,94.72
2023-05-13T06:34:57.393Z,95.68
2023-05-13T06:35:57.422Z,96.09
2023-05-13T06:36:57.374Z,98.06
2023-05-13T06:37:57.368Z,100.88
2023-05-13T06:38:57.364Z,101.10
2023-05-13T06:39:57.357Z,103.87
2023-05-13T06:40:57.345Z,106.81
2023-05-13T06:41:57.338Z,105.22
2023-05-13T06:42:57.321Z,105.39
2023-05-13T06:43:57.319Z,109.17
2023-05-13T06:44:57.324Z,108.76
2023-05-13T06:45:57.320Z,111.14
2023-05-13T06:46:57.333Z,111.80
2023-05-13T06:47:57.384Z,109.23
2023-05-13T06:48:57.289Z,111.47
2023-05-13T06:49:57.283Z,111.68
2023-05-13T06:50:57.285Z,113.23
2023-05-13T06:51:57.298Z,116.66
2023-05-13T06:52:57.274Z,117.10
2023-05-13T06:53:57.274Z,118.59
2023-05-13T06:54:57.261Z,118.36
2023-05-13T06:55:57.248Z,118.96
2023-05-13T06:56:57.258Z,119.23
2023-05-13T06:57:57.257Z,122.23
2023-05-13T06:58:57.231Z,124.09
2023-05-13T06:59:57.224Z,123.64
2023-05-13T07:00:57.283Z,123.62
2023-05-13T07:01:57.210Z,125.36
2023-05-13T07:02:57.247Z,125.55
2023-05-13T07:03:57.244Z,128.71
2023-05-13T07:04:57.186Z,129.82
2023-05-13T07:05:57.183Z,131.79
2023-05-13T07:06:57.181Z,130.87
2023-05-13T07:07:57.210Z,130.37
2023-05-13T07:08:57.161Z,134.79
2023-05-13T07:09:57.170Z,134.42
2023-05-13T07:10:57.145Z,135.56
2023-05-13T07:11:57.136Z,136.67
2023-05-13T07:12:57.170Z,133.12
2023-05-13T07:13:57.132Z,134.21
2023-05-13T07:14:57.123Z,136.79
2023-05-13T07:15:57.127Z,138.88
2023-05-13T07:16:57.124Z,141.80
2023-05-13T07:17:57.124Z,141.43
2023-05-13T07:18:57.134Z,142.93
2023-05-13T07:19:57.095Z,144.07
2023-05-13T07:20:57.101Z,144.70
2023-05-13T07:21:57.080Z,142.54
2023-05-13T07:22:57.083Z,146.21
2023-05-13T07:23:57.090Z,145.89
2023-05-13T07:24:57.087Z,148.02
2023-05-13T07:25:57.042Z,147.76
2023-05-13T07:26:57.038Z,148.40
2023-05-13T07:27:57.047Z,146.06
2023-05-13T07:28:57.023Z,149.66
2023-05-13T07:29:57.017Z,146.22
2023-05-13T07:30:57.043Z,146.22
2023-05-13T07:31:57.006Z,145.69
2023-05-13T07:32:57.028Z,145.44
2023-05-13T07:33:57.021Z,146.03
2023-05-13T07:34:57.010Z,147.18
2023-05-13T07:35:56.977Z,145.76
2023-05-13T07:36:56.975Z,147.71
2023-05-13T07:37:56.971Z,147.01
2023-05-13T07:38:56.965Z,148.30
2023-05-13T07:39:56.976Z,147.95
2023-05-13T07:40:56.950Z,151.15
2023-05-13T07:41:56.938Z,152.62
2023-05-13T07:42:56.962Z,153.96
2023-05-13T07:43:56.924Z,156.25
2023-05-13T07:44:56.924Z,155.97
2023-05-13T07:45:56.913Z,156.16
2023-05-13T07:46:56.945Z,153.62
2023-05-13T07:47:56.968Z,156.03
2023-05-13T07:48:56.894Z,159.51
2023-05-13T07:49:56.876Z,157.55
2023-05-13T07:50:56.869Z,157.53
2023-05-13T07:51:56.886Z,158.76
2023-05-13T07:52:56.869Z,155.25
2023-05-13T07:53:56.860Z,157.71
2023-05-13T07:54:56.843Z,156.12
2023-05-13T07:55:56.858Z,156.03
2023-05-13T07:56:56.830Z,152.43
2023-05-13T07:57:56.830Z,151.63
2023-05-13T07:58:56.821Z,149.11
2023-05-13T07:59:56.834Z,148.41
2023-05-13T08:00:56.803Z,145.38
2023-05-13T08:01:56.808Z,144.76
2023-05-13T08:02:56.894Z,144.00
2023-05-13T08:03:57.092Z,144.99
2023-05-13T08:04:56.793Z,142.55
2023-05-13T08:05:56.777Z,141.01
2023-05-13T08:06:56.779Z,141.87
2023-05-13T08:07:56.798Z,142.70
2023-05-13T08:08:56.801Z,141.60
2023-05-13T08:09:56.800Z,140.31
2023-05-13T08:10:56.802Z,142.30
2023-05-13T08:11:56.831Z,142.90
2023-05-13T08:12:56.798Z,145.28
2023-05-13T08:13:56.866Z,146.51
2023-05-13T08:14:56.916Z,146.90
2023-05-13T08:15:56.979Z,145.94
2023-05-13T08:16:56.946Z,148.26
2023-05-13T08:17:57.019Z,148.55
2023-05-13T08:18:57.023Z,144.10
2023-05-13T08:19:56.949Z,147.36
2023-05-13T08:20:56.953Z,149.65
2023-05-13T08:21:56.948Z,147.45
2023-05-13T08:22:56.937Z,149.96
2023-05-13T08:23:56.946Z,149.18
2023-05-13T08:24:56.942Z,151.42
2023-05-13T08:25:56.936Z,150.02
2023-05-13T08:26:56.961Z,150.40
2023-05-13T08:27:57.041Z,150.29
2023-05-13T08:28:57.013Z,149.20
2023-05-13T08:29:57.098Z,154.57
2023-05-13T08:30:57.084Z,151.33
2023-05-13T08:31:57.114Z,154.87
2023-05-13T08:32:57.106Z,155.33
2023-05-13T08:33:57.081Z,156.83
2023-05-13T08:34:57.105Z,156.45
2023-05-13T08:35:57.082Z,157.64
2023-05-13T08:36:57.089Z,154.08
2023-05-13T08:37:57.132Z,159.79
2023-05-13T08:38:57.096Z,155.27
2023-05-13T08:39:57.093Z,158.18
2023-05-13T08:40:57.130Z,158.57
2023-05-13T08:41:57.109Z,162.11
2023-05-13T08:42:57.097Z,162.24
2023-05-13T08:43:57.198Z,160.06
2023-05-13T08:44:57.147Z,161.76
2023-05-13T08:45:57.228Z,161.82
2023-05-13T08:46:57.265Z,164.23
2023-05-13T08:47:57.348Z,160.57
2023-05-13T08:48:57.380Z,164.37
2023-05-13T08:49:57.445Z,162.10
2023-05-13T08:50:57.557Z,164.95
2023-05-13T08:51:57.585Z,164.50
2023-05-13T08:52:57.632Z,166.85
2023-05-13T08:53:57.650Z,166.18
2023-05-13T08:54:57.670Z,165.43
2023-05-13T08:55:57.726Z,169.00
2023-05-13T08:56:57.791Z,168.99
2023-05-13T08:57:57.795Z,167.13
2023-05-13T08:58:57.805Z,173.75
2023-05-13T08:59:57.836Z,173.13
2023-05-13T09:00:57.908Z,173.83
2023-05-13T09:01:57.815Z,173.17
2023-05-13T09:02:57.888Z,172.51
2023-05-13T09:03:57.864Z,172.67
2023-05-13T09:04:57.879Z,172.06
2023-05-13T09:05:57.908Z,174.40
2023-05-13T09:06:57.925Z,176.76
2023-05-13T09:07:57.957Z,178.03
2023-05-13T09:08:58.014Z,176.82
2023-05-13T09:09:58.012Z,178.74
2023-05-13T09:10:58.062Z,178.42
2023-05-13T09:11:58.077Z,179.40
2023-05-13T09:12:58.096Z,177.79
2023-05-13T09:13:58.154Z,180.18
2023-05-13T09:14:58.207Z,180.74
2023-05-13T09:15:58.322Z,180.22
2023-05-13T09:16:58.262Z,180.04
2023-05-13T09:17:58.388Z,182.98
2023-05-13T09:18:58.442Z,186.85
2023-05-13T09:19:58.405Z,185.28
2023-05-13T09:20:58.406Z,184.22
2023-05-13T09:21:58.423Z,184.77
2023-05-13T09:22:58.494Z,185.27
2023-05-13T09:23:58.516Z,188.39
2023-05-13T09:24:58.572Z,185.74
2023-05-13T09:25:58.624Z,187.99
2023-05-13T09:26:58.680Z,188.84
2023-05-13T09:27:59.049Z,188.80
2023-05-13T09:28:58.755Z,189.86
2023-05-13T09:29:58.804Z,190.20
2023-05-13T09:30:58.896Z,195.36
2023-05-13T09:31:59.002Z,198.79
2023-05-13T09:32:58.965Z,204.40
2023-05-13T09:33:58.951Z,202.14
2023-05-13T09:34:58.950Z,194.29
2023-05-13T09:35:58.959Z,192.91
2023-05-13T09:36:58.989Z,195.60
2023-05-13T09:37:58.987Z,194.72
2023-05-13T09:38:58.982Z,194.26
2023-05-13T09:39:58.986Z,192.78
2023-05-13T09:40:58.981Z,190.25
2023-05-13T09:41:58.978Z,191.15
2023-05-13T09:42:58.972Z,188.54
2023-05-13T09:43:58.984Z,187.67
2023-05-13T09:44:58.976Z,183.96
2023-05-13T09:45:58.979Z,181.36
2023-05-13T09:46:59.038Z,180.89
2023-05-13T09:47:59.070Z,177.39
2023-05-13T09:48:59.008Z,176.63
2023-05-13T09:49:59.015Z,176.22
2023-05-13T09:50:59.012Z,172.91
2023-05-13T09:51:59.022Z,170.65
2023-05-13T09:52:59.046Z,169.58
2023-05-13T09:53:59.067Z,169.37
2023-05-13T09:54:59.095Z,165.65
2023-05-13T09:55:59.118Z,163.12
2023-05-13T09:56:59.133Z,163.51
2023-05-13T09:57:59.120Z,161.28
2023-05-13T09:58:59.199Z,161.22
2023-05-13T09:59:59.137Z,159.18
2023-05-13T10:00:59.252Z,157.75
2023-05-13T10:01:59.140Z,155.38
2023-05-13T10:02:59.171Z,157.56
2023-05-13T10:03:59.225Z,156.92
2023-05-13T10:04:59.153Z,157.46
2023-05-13T10:06:01.287Z,154.77
2023-05-13T10:06:59.157Z,155.13
2023-05-13T10:07:59.140Z,156.17
2023-05-13T10:08:59.165Z,157.51
2023-05-13T10:09:59.129Z,156.45
2023-05-13T10:10:59.112Z,156.13
2023-05-13T10:11:59.103Z,158.43
2023-05-13T10:12:59.103Z,155.60
2023-05-13T10:13:59.096Z,158.26
2023-05-13T10:14:59.097Z,154.75
2023-05-13T10:15:59.079Z,155.36
2023-05-13T10:16:59.253Z,154.84
2023-05-13T10:17:59.135Z,155.82
2023-05-13T10:18:59.130Z,156.40
2023-05-13T10:19:59.084Z,153.94
2023-05-13T10:20:59.055Z,153.48
2023-05-13T10:21:59.058Z,151.99
2023-05-13T10:22:59.037Z,152.38
2023-05-13T10:23:59.033Z,152.56
2023-05-13T10:24:59.022Z,153.36
2023-05-13T10:25:59.029Z,153.03
2023-05-13T10:26:59.026Z,152.92
2023-05-13T10:27:59.011Z,151.26
2023-05-13T10:28:59.000Z,151.84
2023-05-13T10:30:00.527Z,152.78
2023-05-13T10:30:58.993Z,158.52
2023-05-13T10:31:59.040Z,154.82
2023-05-13T10:32:59.016Z,152.91
2023-05-13T10:33:58.964Z,152.44
2023-05-13T10:34:58.953Z,150.10
2023-05-13T10:35:58.975Z,152.15
2023-05-13T10:36:58.945Z,147.70
2023-05-13T10:37:58.924Z,146.19
2023-05-13T10:38:58.918Z,150.84
2023-05-13T10:39:58.920Z,147.49
2023-05-13T10:40:58.906Z,148.62
2023-05-13T10:41:58.904Z,149.36
2023-05-13T10:42:58.904Z,149.52
2023-05-13T10:43:58.912Z,149.10
2023-05-13T10:44:58.899Z,150.25
2023-05-13T10:45:58.906Z,148.33
2023-05-13T10:46:58.867Z,144.69
2023-05-13T10:47:58.996Z,148.06
2023-05-13T10:48:58.883Z,144.01
2023-05-13T10:49:58.846Z,145.31
2023-05-13T10:50:58.845Z,144.19
2023-05-13T10:51:58.883Z,145.65
2023-05-13T10:52:58.839Z,145.36
2023-05-13T10:53:58.825Z,146.53
2023-05-13T10:54:58.823Z,144.75
2023-05-13T10:55:58.816Z,145.83
2023-05-13T10:56:58.812Z,142.43
2023-05-13T10:57:58.811Z,141.82
2023-05-13T10:58:58.810Z,141.46
2023-05-13T10:59:58.794Z,138.98
2023-05-13T11:00:58.790Z,139.16
2023-05-13T11:01:58.872Z,143.77
2023-05-13T11:02:58.876Z,138.88
2023-05-13T11:03:59.099Z,138.50
2023-05-13T11:04:58.767Z,140.88
2023-05-13T11:05:58.780Z,140.63
2023-05-13T11:06:58.755Z,139.73
2023-05-13T11:07:58.766Z,136.41
2023-05-13T11:08:58.725Z,137.47
2023-05-13T11:09:58.727Z,138.86
2023-05-13T11:10:58.717Z,139.83
2023-05-13T11:11:58.714Z,137.14
2023-05-13T11:12:58.704Z,136.76
2023-05-13T11:13:58.705Z,139.17
2023-05-13T11:14:58.692Z,138.64
2023-05-13T11:15:58.786Z,136.71
2023-05-13T11:16:58.674Z,136.01
2023-05-13T11:17:58.684Z,135.30
2023-05-13T11:18:58.701Z,136.87
2023-05-13T11:19:58.664Z,134.34
2023-05-13T11:20:58.667Z,133.47
2023-05-13T11:21:58.655Z,133.39
2023-05-13T11:22:58.646Z,131.56
2023-05-13T11:23:58.660Z,131.13
2023-05-13T11:24:58.632Z,131.71
2023-05-13T11:25:58.629Z,131.63
2023-05-13T11:26:58.627Z,133.79
2023-05-13T11:27:58.625Z,132.40
2023-05-13T11:28:58.622Z,129.69
2023-05-13T11:29:58.594Z,131.52
2023-05-13T11:30:58.619Z,127.39
2023-05-13T11:32:00.602Z,129.29
2023-05-13T11:32:58.714Z,129.48
2023-05-13T11:33:58.570Z,130.11
2023-05-13T11:34:58.568Z,130.08
2023-05-13T11:35:58.556Z,128.73
2023-05-13T11:36:58.574Z,126.48
2023-05-13T11:38:00.130Z,126.52
2023-05-13T11:38:58.533Z,131.62
2023-05-13T11:39:58.550Z,134.07
2023-05-13T11:40:58.529Z,129.95
2023-05-13T11:41:58.517Z,127.30
2023-05-13T11:42:58.504Z,127.10
2023-05-13T11:43:58.501Z,126.56
2023-05-13T11:44:58.489Z,124.71
2023-05-13T11:45:58.502Z,124.34
2023-05-13T11:46:58.481Z,123.08
2023-05-13T11:47:58.477Z,123.72
2023-05-13T11:48:58.459Z,124.66
2023-05-13T11:49:58.453Z,125.10
2023-05-13T11:50:58.453Z,122.25
2023-05-13T11:51:58.444Z,119.30
2023-05-13T11:52:58.425Z,122.00
2023-05-13T11:53:58.426Z,120.56
2023-05-13T11:54:58.413Z,119.78
2023-05-13T11:55:58.441Z,118.36
2023-05-13T11:56:58.412Z,119.97
2023-05-13T11:57:58.390Z,121.08
2023-05-13T11:58:58.386Z,117.58
2023-05-13T11:59:58.373Z,121.96
2023-05-13T12:00:58.360Z,124.07
2023-05-13T12:01:58.384Z,121.05
2023-05-13T12:02:58.559Z,121.35
2023-05-13T12:03:58.346Z,119.75
2023-05-13T12:04:58.370Z,119.89
2023-05-13T12:05:58.332Z,118.65
2023-05-13T12:06:58.320Z,120.27
2023-05-13T12:07:58.489Z,121.55
2023-05-13T12:08:58.308Z,121.06
2023-05-13T12:09:58.331Z,118.73
2023-05-13T12:10:58.300Z,119.01
2023-05-13T12:11:58.319Z,119.00
2023-05-13T12:12:58.280Z,119.80
2023-05-13T12:13:58.276Z,119.51
2023-05-13T12:14:58.270Z,119.90
2023-05-13T12:15:58.309Z,118.53
2023-05-13T12:16:58.243Z,117.40
2023-05-13T12:17:58.291Z,118.80
2023-05-13T12:18:58.287Z,119.73
2023-05-13T12:19:58.228Z,117.95
2023-05-13T12:20:58.248Z,118.20
2023-05-13T12:21:58.215Z,117.67
2023-05-13T12:22:58.222Z,118.22
2023-05-13T12:23:58.201Z,118.19
2023-05-13T12:24:58.200Z,116.70
2023-05-13T12:25:58.200Z,117.30
2023-05-13T12:26:58.178Z,115.66
2023-05-13T12:27:58.201Z,115.66
2023-05-13T12:28:58.163Z,114.58
2023-05-13T12:29:58.163Z,117.07
2023-05-13T12:30:58.316Z,118.44
2023-05-13T12:31:58.177Z,118.63
2023-05-13T12:32:58.148Z,117.18
2023-05-13T12:33:58.134Z,117.08
2023-05-13T12:34:58.168Z,119.72
2023-05-13T12:35:58.119Z,117.55
2023-05-13T12:36:58.138Z,116.46
2023-05-13T12:37:58.104Z,117.59
2023-05-13T12:39:00.050Z,117.72
2023-05-13T12:39:58.087Z,116.74
2023-05-13T12:40:58.081Z,117.81
2023-05-13T12:41:58.072Z,117.75